sensor_id;sensor_type;location;lat;lon;timestamp;temperature;humidity
780;DHT22;373;49.342;8.146;2023-06-22T00:01:21;25.30;99.90
780;DHT22;373;49.342;8.146;2023-06-22T00:03:49;25.20;1.00
780;DHT22;373;49.342;8.146;2023-06-22T00:06:16;25.00;99.90
780;DHT22;373;49.342;8.146;2023-06-22T00:08:43;24.70;1.00
780;DHT22;373;49.342;8.146;2023-06-22T00:11:11;24.00;1.00
780;DHT22;373;49.342;8.146;2023-06-22T00:13:41;23.60;1.00
780;DHT22;373;49.342;8.146;2023-06-22T00:16:08;23.40;1.00
780;DHT22;373;49.342;8.146;2023-06-22T00:18:36;23.20;1.00
780;DHT22;373;49.342;8.146;2023-06-22T00:21:03;23.20;1.00
780;DHT22;373;49.342;8.146;2023-06-22T00:23:30;23.30;1.00
780;DHT22;373;49.342;8.146;2023-06-22T00:26:02;23.20;1.00
780;DHT22;373;49.342;8.146;2023-06-22T00:28:29;23.50;99.90
780;DHT22;373;49.342;8.146;2023-06-22T00:30:58;23.80;1.00
780;DHT22;373;49.342;8.146;2023-06-22T00:33:26;24.00;1.00
780;DHT22;373;49.342;8.146;2023-06-22T00:35:54;24.10;99.90
780;DHT22;373;49.342;8.146;2023-06-22T00:38:21;23.90;1.00
780;DHT22;373;49.342;8.146;2023-06-22T00:40:48;24.00;1.00
780;DHT22;373;49.342;8.146;2023-06-22T00:43:15;23.90;1.00
780;DHT22;373;49.342;8.146;2023-06-22T00:45:42;23.80;1.00
780;DHT22;373;49.342;8.146;2023-06-22T00:48:12;23.70;1.00
780;DHT22;373;49.342;8.146;2023-06-22T00:50:40;23.70;1.00
780;DHT22;373;49.342;8.146;2023-06-22T00:53:09;23.80;1.00
780;DHT22;373;49.342;8.146;2023-06-22T00:55:42;23.80;1.00
780;DHT22;373;49.342;8.146;2023-06-22T00:58:11;23.80;1.00
780;DHT22;373;49.342;8.146;2023-06-22T01:00:39;23.90;1.00
780;DHT22;373;49.342;8.146;2023-06-22T01:03:07;24.20;1.00
780;DHT22;373;49.342;8.146;2023-06-22T01:05:37;24.30;1.00
780;DHT22;373;49.342;8.146;2023-06-22T01:08:12;24.30;1.00
780;DHT22;373;49.342;8.146;2023-06-22T01:10:44;24.20;1.00
780;DHT22;373;49.342;8.146;2023-06-22T01:13:22;23.80;1.00
780;DHT22;373;49.342;8.146;2023-06-22T01:15:55;23.80;1.00
780;DHT22;373;49.342;8.146;2023-06-22T01:18:24;24.00;1.00
780;DHT22;373;49.342;8.146;2023-06-22T01:20:56;24.00;1.00
780;DHT22;373;49.342;8.146;2023-06-22T01:23:29;24.10;1.00
780;DHT22;373;49.342;8.146;2023-06-22T01:26:05;23.90;1.00
780;DHT22;373;49.342;8.146;2023-06-22T01:28:45;23.70;1.00
780;DHT22;373;49.342;8.146;2023-06-22T01:31:14;23.10;77.20
780;DHT22;373;49.342;8.146;2023-06-22T01:33:44;22.90;83.20
780;DHT22;373;49.342;8.146;2023-06-22T01:36:13;22.80;99.90
780;DHT22;373;49.342;8.146;2023-06-22T01:38:42;22.60;99.90
780;DHT22;373;49.342;8.146;2023-06-22T01:41:12;22.70;99.90
780;DHT22;373;49.342;8.146;2023-06-22T01:43:41;22.70;99.90
780;DHT22;373;49.342;8.146;2023-06-22T01:46:10;22.60;99.90
780;DHT22;373;49.342;8.146;2023-06-22T01:48:38;22.80;99.90
780;DHT22;373;49.342;8.146;2023-06-22T01:51:06;22.70;99.90
780;DHT22;373;49.342;8.146;2023-06-22T01:53:33;22.80;99.90
780;DHT22;373;49.342;8.146;2023-06-22T01:56:00;22.80;99.90
780;DHT22;373;49.342;8.146;2023-06-22T01:58:29;22.70;99.90
780;DHT22;373;49.342;8.146;2023-06-22T02:01:02;22.40;99.90
780;DHT22;373;49.342;8.146;2023-06-22T02:03:35;22.20;99.90
780;DHT22;373;49.342;8.146;2023-06-22T02:06:07;22.20;99.90
780;DHT22;373;49.342;8.146;2023-06-22T02:08:38;22.00;99.90
780;DHT22;373;49.342;8.146;2023-06-22T02:11:08;21.90;99.90
780;DHT22;373;49.342;8.146;2023-06-22T02:13:36;21.80;99.90
780;DHT22;373;49.342;8.146;2023-06-22T02:16:10;21.70;99.90
780;DHT22;373;49.342;8.146;2023-06-22T02:18:46;21.70;99.90
780;DHT22;373;49.342;8.146;2023-06-22T02:21:13;21.70;99.90
780;DHT22;373;49.342;8.146;2023-06-22T02:23:41;21.70;99.90
780;DHT22;373;49.342;8.146;2023-06-22T02:26:08;21.70;99.90
780;DHT22;373;49.342;8.146;2023-06-22T02:28:38;21.70;99.90
780;DHT22;373;49.342;8.146;2023-06-22T02:31:05;21.60;99.90
780;DHT22;373;49.342;8.146;2023-06-22T02:33:34;21.70;99.90
780;DHT22;373;49.342;8.146;2023-06-22T02:36:01;21.80;99.90
780;DHT22;373;49.342;8.146;2023-06-22T02:38:33;22.00;99.90
780;DHT22;373;49.342;8.146;2023-06-22T02:41:03;21.90;99.90
780;DHT22;373;49.342;8.146;2023-06-22T02:43:33;22.10;99.90
780;DHT22;373;49.342;8.146;2023-06-22T02:46:00;22.50;99.90
780;DHT22;373;49.342;8.146;2023-06-22T02:48:30;22.70;99.90
780;DHT22;373;49.342;8.146;2023-06-22T02:50:59;22.90;99.90
780;DHT22;373;49.342;8.146;2023-06-22T02:53:29;23.10;83.90
780;DHT22;373;49.342;8.146;2023-06-22T02:55:58;23.20;86.50
780;DHT22;373;49.342;8.146;2023-06-22T02:58:28;23.30;47.80
780;DHT22;373;49.342;8.146;2023-06-22T03:00:55;23.30;55.40
780;DHT22;373;49.342;8.146;2023-06-22T03:03:23;23.30;51.60
780;DHT22;373;49.342;8.146;2023-06-22T03:05:57;23.30;49.30
780;DHT22;373;49.342;8.146;2023-06-22T03:08:26;23.40;34.90
780;DHT22;373;49.342;8.146;2023-06-22T03:10:53;23.10;70.10
780;DHT22;373;49.342;8.146;2023-06-22T03:13:20;23.20;60.90
780;DHT22;373;49.342;8.146;2023-06-22T03:15:47;23.20;45.60
780;DHT22;373;49.342;8.146;2023-06-22T03:18:14;23.40;32.70
780;DHT22;373;49.342;8.146;2023-06-22T03:20:42;23.50;14.30
780;DHT22;373;49.342;8.146;2023-06-22T03:23:09;23.60;6.40
780;DHT22;373;49.342;8.146;2023-06-22T03:25:40;23.40;7.00
780;DHT22;373;49.342;8.146;2023-06-22T03:28:08;23.20;49.40
780;DHT22;373;49.342;8.146;2023-06-22T03:30:35;23.20;43.70
780;DHT22;373;49.342;8.146;2023-06-22T03:33:02;23.20;30.00
780;DHT22;373;49.342;8.146;2023-06-22T03:35:29;23.40;21.10
780;DHT22;373;49.342;8.146;2023-06-22T03:37:56;23.40;7.70
780;DHT22;373;49.342;8.146;2023-06-22T03:40:23;23.50;9.60
780;DHT22;373;49.342;8.146;2023-06-22T03:42:52;23.60;1.00
780;DHT22;373;49.342;8.146;2023-06-22T03:45:19;23.80;1.00
780;DHT22;373;49.342;8.146;2023-06-22T03:47:47;23.80;1.00
780;DHT22;373;49.342;8.146;2023-06-22T03:50:17;23.90;1.00
780;DHT22;373;49.342;8.146;2023-06-22T03:52:46;24.00;1.00
780;DHT22;373;49.342;8.146;2023-06-22T03:55:13;24.10;1.00
780;DHT22;373;49.342;8.146;2023-06-22T03:57:40;23.90;1.00
780;DHT22;373;49.342;8.146;2023-06-22T04:00:09;24.00;1.00
780;DHT22;373;49.342;8.146;2023-06-22T04:02:40;24.10;1.00
780;DHT22;373;49.342;8.146;2023-06-22T04:05:09;24.20;1.00
780;DHT22;373;49.342;8.146;2023-06-22T04:07:36;24.20;1.00
780;DHT22;373;49.342;8.146;2023-06-22T04:10:06;24.10;1.00
780;DHT22;373;49.342;8.146;2023-06-22T04:12:34;24.30;1.00
780;DHT22;373;49.342;8.146;2023-06-22T04:15:01;24.20;1.00
780;DHT22;373;49.342;8.146;2023-06-22T04:17:29;24.30;1.00
780;DHT22;373;49.342;8.146;2023-06-22T04:19:56;24.30;1.00
780;DHT22;373;49.342;8.146;2023-06-22T04:22:23;24.40;1.00
780;DHT22;373;49.342;8.146;2023-06-22T04:24:50;24.60;1.00
780;DHT22;373;49.342;8.146;2023-06-22T04:27:21;24.70;1.00
780;DHT22;373;49.342;8.146;2023-06-22T04:29:53;24.70;1.00
780;DHT22;373;49.342;8.146;2023-06-22T04:32:20;24.60;1.00
780;DHT22;373;49.342;8.146;2023-06-22T04:34:49;24.60;1.00
780;DHT22;373;49.342;8.146;2023-06-22T04:37:19;24.60;1.00
780;DHT22;373;49.342;8.146;2023-06-22T04:39:49;24.60;1.00
780;DHT22;373;49.342;8.146;2023-06-22T04:42:16;24.80;1.00
780;DHT22;373;49.342;8.146;2023-06-22T04:44:44;24.80;1.00
780;DHT22;373;49.342;8.146;2023-06-22T04:48:04;25.10;1.00
780;DHT22;373;49.342;8.146;2023-06-22T04:50:47;25.20;1.00
780;DHT22;373;49.342;8.146;2023-06-22T04:56:08;25.40;1.00
780;DHT22;373;49.342;8.146;2023-06-22T04:58:35;25.40;1.00
780;DHT22;373;49.342;8.146;2023-06-22T05:01:05;25.40;1.00
780;DHT22;373;49.342;8.146;2023-06-22T05:03:37;25.40;1.00
780;DHT22;373;49.342;8.146;2023-06-22T05:06:11;25.70;1.00
780;DHT22;373;49.342;8.146;2023-06-22T05:08:40;25.60;1.00
780;DHT22;373;49.342;8.146;2023-06-22T05:11:14;26.10;1.00
780;DHT22;373;49.342;8.146;2023-06-22T05:13:42;26.40;99.90
780;DHT22;373;49.342;8.146;2023-06-22T05:16:09;26.60;99.90
780;DHT22;373;49.342;8.146;2023-06-22T05:18:39;26.80;1.00
780;DHT22;373;49.342;8.146;2023-06-22T05:21:07;26.90;99.90
780;DHT22;373;49.342;8.146;2023-06-22T05:23:36;26.80;1.00
780;DHT22;373;49.342;8.146;2023-06-22T05:26:03;26.50;1.00
780;DHT22;373;49.342;8.146;2023-06-22T05:28:31;26.30;99.90
780;DHT22;373;49.342;8.146;2023-06-22T05:31:10;26.50;99.90
780;DHT22;373;49.342;8.146;2023-06-22T05:33:37;26.30;1.00
780;DHT22;373;49.342;8.146;2023-06-22T05:36:04;26.40;99.90
780;DHT22;373;49.342;8.146;2023-06-22T05:38:32;26.60;99.90
780;DHT22;373;49.342;8.146;2023-06-22T05:41:03;26.90;25.50
780;DHT22;373;49.342;8.146;2023-06-22T05:43:30;26.90;1.00
780;DHT22;373;49.342;8.146;2023-06-22T05:45:58;26.60;1.00
780;DHT22;373;49.342;8.146;2023-06-22T05:48:25;26.30;99.90
780;DHT22;373;49.342;8.146;2023-06-22T05:50:52;26.30;1.00
780;DHT22;373;49.342;8.146;2023-06-22T05:53:22;26.10;99.90
780;DHT22;373;49.342;8.146;2023-06-22T05:55:49;26.30;99.90
780;DHT22;373;49.342;8.146;2023-06-22T05:58:18;26.70;99.90
780;DHT22;373;49.342;8.146;2023-06-22T06:00:45;27.10;26.50
780;DHT22;373;49.342;8.146;2023-06-22T06:03:13;27.30;1.00
780;DHT22;373;49.342;8.146;2023-06-22T06:05:43;27.50;99.90
780;DHT22;373;49.342;8.146;2023-06-22T06:08:11;27.70;99.90
780;DHT22;373;49.342;8.146;2023-06-22T06:10:38;27.80;99.90
780;DHT22;373;49.342;8.146;2023-06-22T06:13:06;27.60;1.00
780;DHT22;373;49.342;8.146;2023-06-22T06:15:34;27.20;1.00
780;DHT22;373;49.342;8.146;2023-06-22T06:18:02;27.50;99.90
780;DHT22;373;49.342;8.146;2023-06-22T06:20:31;27.60;99.90
780;DHT22;373;49.342;8.146;2023-06-22T06:22:58;27.70;99.90
780;DHT22;373;49.342;8.146;2023-06-22T06:25:25;27.90;86.10
780;DHT22;373;49.342;8.146;2023-06-22T06:27:53;28.10;42.30
780;DHT22;373;49.342;8.146;2023-06-22T06:30:21;28.20;5.30
780;DHT22;373;49.342;8.146;2023-06-22T06:32:50;28.20;99.90
780;DHT22;373;49.342;8.146;2023-06-22T06:35:21;28.40;99.90
780;DHT22;373;49.342;8.146;2023-06-22T06:37:49;28.30;99.90
780;DHT22;373;49.342;8.146;2023-06-22T06:40:18;28.50;82.80
780;DHT22;373;49.342;8.146;2023-06-22T06:42:46;28.20;90.70
780;DHT22;373;49.342;8.146;2023-06-22T06:45:16;27.90;99.90
780;DHT22;373;49.342;8.146;2023-06-22T06:47:43;27.70;1.00
780;DHT22;373;49.342;8.146;2023-06-22T06:50:12;27.50;99.90
780;DHT22;373;49.342;8.146;2023-06-22T06:52:39;27.70;99.90
780;DHT22;373;49.342;8.146;2023-06-22T06:55:08;27.30;99.90
780;DHT22;373;49.342;8.146;2023-06-22T06:57:37;27.20;28.90
780;DHT22;373;49.342;8.146;2023-06-22T07:00:06;27.20;1.00
780;DHT22;373;49.342;8.146;2023-06-22T07:02:35;27.60;1.00
780;DHT22;373;49.342;8.146;2023-06-22T07:05:03;27.60;1.00
780;DHT22;373;49.342;8.146;2023-06-22T07:07:31;27.50;99.90
780;DHT22;373;49.342;8.146;2023-06-22T07:09:58;27.30;99.90
780;DHT22;373;49.342;8.146;2023-06-22T07:12:26;27.20;1.00
780;DHT22;373;49.342;8.146;2023-06-22T07:14:53;27.50;1.00
780;DHT22;373;49.342;8.146;2023-06-22T07:17:20;27.10;99.90
780;DHT22;373;49.342;8.146;2023-06-22T07:19:47;27.50;99.90
780;DHT22;373;49.342;8.146;2023-06-22T07:22:14;27.60;99.90
780;DHT22;373;49.342;8.146;2023-06-22T07:24:43;27.30;1.00
780;DHT22;373;49.342;8.146;2023-06-22T07:27:10;27.60;1.00
780;DHT22;373;49.342;8.146;2023-06-22T07:29:38;27.80;1.00
780;DHT22;373;49.342;8.146;2023-06-22T07:32:06;28.20;41.70
780;DHT22;373;49.342;8.146;2023-06-22T07:34:34;28.30;1.00
780;DHT22;373;49.342;8.146;2023-06-22T07:37:01;28.20;1.00
780;DHT22;373;49.342;8.146;2023-06-22T07:39:29;28.70;1.00
780;DHT22;373;49.342;8.146;2023-06-22T07:41:57;29.00;99.90
780;DHT22;373;49.342;8.146;2023-06-22T07:44:24;29.00;99.90
780;DHT22;373;49.342;8.146;2023-06-22T07:46:51;29.30;99.90
780;DHT22;373;49.342;8.146;2023-06-22T07:49:18;29.00;33.10
780;DHT22;373;49.342;8.146;2023-06-22T07:51:45;29.40;99.90
780;DHT22;373;49.342;8.146;2023-06-22T07:54:12;30.00;1.00
780;DHT22;373;49.342;8.146;2023-06-22T07:56:41;30.10;1.00
780;DHT22;373;49.342;8.146;2023-06-22T07:59:10;30.30;1.00
780;DHT22;373;49.342;8.146;2023-06-22T08:01:39;29.90;1.00
780;DHT22;373;49.342;8.146;2023-06-22T08:04:06;29.60;1.00
780;DHT22;373;49.342;8.146;2023-06-22T08:06:34;29.20;6.40
780;DHT22;373;49.342;8.146;2023-06-22T08:09:01;29.40;1.00
780;DHT22;373;49.342;8.146;2023-06-22T08:11:28;29.40;1.00
780;DHT22;373;49.342;8.146;2023-06-22T08:13:55;29.40;1.00
780;DHT22;373;49.342;8.146;2023-06-22T08:16:25;29.60;30.00
780;DHT22;373;49.342;8.146;2023-06-22T08:18:52;29.90;1.00
780;DHT22;373;49.342;8.146;2023-06-22T08:21:20;29.40;1.00
780;DHT22;373;49.342;8.146;2023-06-22T08:23:48;29.80;1.00
780;DHT22;373;49.342;8.146;2023-06-22T08:26:15;29.20;1.00
780;DHT22;373;49.342;8.146;2023-06-22T08:28:42;29.10;99.90
780;DHT22;373;49.342;8.146;2023-06-22T08:31:09;29.10;1.00
780;DHT22;373;49.342;8.146;2023-06-22T08:33:41;29.60;1.00
780;DHT22;373;49.342;8.146;2023-06-22T08:36:09;30.10;1.00
780;DHT22;373;49.342;8.146;2023-06-22T08:38:39;30.30;1.00
780;DHT22;373;49.342;8.146;2023-06-22T08:41:06;30.80;99.90
780;DHT22;373;49.342;8.146;2023-06-22T08:43:33;31.30;99.90
780;DHT22;373;49.342;8.146;2023-06-22T08:46:00;31.00;99.90
780;DHT22;373;49.342;8.146;2023-06-22T08:48:28;30.60;99.90
780;DHT22;373;49.342;8.146;2023-06-22T08:50:57;29.70;99.90
780;DHT22;373;49.342;8.146;2023-06-22T08:53:24;29.60;99.90
780;DHT22;373;49.342;8.146;2023-06-22T08:55:51;29.30;1.00
780;DHT22;373;49.342;8.146;2023-06-22T08:58:18;29.00;1.00
780;DHT22;373;49.342;8.146;2023-06-22T09:00:46;29.60;1.00
780;DHT22;373;49.342;8.146;2023-06-22T09:03:13;29.80;99.90
780;DHT22;373;49.342;8.146;2023-06-22T09:05:40;30.20;99.90
780;DHT22;373;49.342;8.146;2023-06-22T09:08:10;30.40;99.90
780;DHT22;373;49.342;8.146;2023-06-22T09:10:38;30.20;99.90
780;DHT22;373;49.342;8.146;2023-06-22T09:13:05;30.20;99.90
780;DHT22;373;49.342;8.146;2023-06-22T09:15:32;30.10;99.90
780;DHT22;373;49.342;8.146;2023-06-22T09:18:00;30.60;99.90
780;DHT22;373;49.342;8.146;2023-06-22T09:20:27;30.60;99.90
780;DHT22;373;49.342;8.146;2023-06-22T09:22:54;31.30;99.90
780;DHT22;373;49.342;8.146;2023-06-22T09:25:23;30.90;99.90
780;DHT22;373;49.342;8.146;2023-06-22T09:27:50;30.90;99.90
780;DHT22;373;49.342;8.146;2023-06-22T09:30:17;30.60;99.90
780;DHT22;373;49.342;8.146;2023-06-22T09:32:45;30.20;99.90
780;DHT22;373;49.342;8.146;2023-06-22T09:35:12;30.70;99.90
780;DHT22;373;49.342;8.146;2023-06-22T09:37:40;30.10;99.90
780;DHT22;373;49.342;8.146;2023-06-22T09:40:08;29.80;99.90
780;DHT22;373;49.342;8.146;2023-06-22T09:42:38;29.80;99.90
780;DHT22;373;49.342;8.146;2023-06-22T09:45:06;29.80;99.90
780;DHT22;373;49.342;8.146;2023-06-22T09:47:34;29.80;99.90
780;DHT22;373;49.342;8.146;2023-06-22T09:50:01;29.90;99.90
780;DHT22;373;49.342;8.146;2023-06-22T09:52:28;29.90;99.90
780;DHT22;373;49.342;8.146;2023-06-22T09:54:55;29.90;99.90
780;DHT22;373;49.342;8.146;2023-06-22T09:57:22;30.10;99.90
780;DHT22;373;49.342;8.146;2023-06-22T09:59:50;30.30;99.90
780;DHT22;373;49.342;8.146;2023-06-22T10:02:18;30.50;99.90
780;DHT22;373;49.342;8.146;2023-06-22T10:04:45;30.40;99.90
780;DHT22;373;49.342;8.146;2023-06-22T10:07:14;29.60;99.90
780;DHT22;373;49.342;8.146;2023-06-22T10:09:41;30.00;99.90
780;DHT22;373;49.342;8.146;2023-06-22T10:12:11;29.90;99.90
780;DHT22;373;49.342;8.146;2023-06-22T10:14:38;29.90;99.90
780;DHT22;373;49.342;8.146;2023-06-22T10:17:07;29.90;99.90
780;DHT22;373;49.342;8.146;2023-06-22T10:19:34;30.50;99.90
780;DHT22;373;49.342;8.146;2023-06-22T10:22:04;30.00;99.90
780;DHT22;373;49.342;8.146;2023-06-22T10:24:31;30.10;99.90
780;DHT22;373;49.342;8.146;2023-06-22T10:26:58;30.80;99.90
780;DHT22;373;49.342;8.146;2023-06-22T10:29:25;30.70;99.90
780;DHT22;373;49.342;8.146;2023-06-22T10:31:52;30.40;99.90
780;DHT22;373;49.342;8.146;2023-06-22T10:34:21;30.50;99.90
780;DHT22;373;49.342;8.146;2023-06-22T10:36:48;30.90;99.90
780;DHT22;373;49.342;8.146;2023-06-22T10:39:15;31.90;99.90
780;DHT22;373;49.342;8.146;2023-06-22T10:41:42;33.10;99.90
780;DHT22;373;49.342;8.146;2023-06-22T10:44:09;33.10;94.90
780;DHT22;373;49.342;8.146;2023-06-22T10:46:36;32.00;99.50
780;DHT22;373;49.342;8.146;2023-06-22T10:49:03;31.20;99.90
780;DHT22;373;49.342;8.146;2023-06-22T10:51:32;30.90;99.90
780;DHT22;373;49.342;8.146;2023-06-22T10:53:59;30.70;99.90
780;DHT22;373;49.342;8.146;2023-06-22T10:56:27;30.80;99.90
780;DHT22;373;49.342;8.146;2023-06-22T10:58:54;30.50;99.90
780;DHT22;373;49.342;8.146;2023-06-22T11:01:21;30.80;99.90
780;DHT22;373;49.342;8.146;2023-06-22T11:03:48;31.10;99.90
780;DHT22;373;49.342;8.146;2023-06-22T11:06:15;30.80;99.90
780;DHT22;373;49.342;8.146;2023-06-22T11:08:45;30.90;99.90
780;DHT22;373;49.342;8.146;2023-06-22T11:11:12;30.70;99.90
780;DHT22;373;49.342;8.146;2023-06-22T11:13:39;30.80;99.90
780;DHT22;373;49.342;8.146;2023-06-22T11:16:06;31.40;99.90
780;DHT22;373;49.342;8.146;2023-06-22T11:18:33;31.20;99.90
780;DHT22;373;49.342;8.146;2023-06-22T11:21:00;31.10;99.90
780;DHT22;373;49.342;8.146;2023-06-22T11:23:27;31.10;99.90
780;DHT22;373;49.342;8.146;2023-06-22T11:25:56;31.10;99.90
780;DHT22;373;49.342;8.146;2023-06-22T11:28:23;30.90;99.90
780;DHT22;373;49.342;8.146;2023-06-22T11:30:53;31.00;99.90
780;DHT22;373;49.342;8.146;2023-06-22T11:33:20;31.00;99.90
780;DHT22;373;49.342;8.146;2023-06-22T11:35:47;31.60;99.90
780;DHT22;373;49.342;8.146;2023-06-22T11:38:14;31.50;99.90
780;DHT22;373;49.342;8.146;2023-06-22T11:40:42;31.10;99.90
780;DHT22;373;49.342;8.146;2023-06-22T11:43:11;31.10;99.90
780;DHT22;373;49.342;8.146;2023-06-22T11:45:40;31.00;99.90
780;DHT22;373;49.342;8.146;2023-06-22T11:48:11;30.90;99.90
780;DHT22;373;49.342;8.146;2023-06-22T11:50:40;30.80;99.90
780;DHT22;373;49.342;8.146;2023-06-22T11:53:10;30.90;99.90
780;DHT22;373;49.342;8.146;2023-06-22T11:55:43;31.10;99.90
780;DHT22;373;49.342;8.146;2023-06-22T11:58:13;30.80;99.90
780;DHT22;373;49.342;8.146;2023-06-22T12:00:40;30.60;99.90
780;DHT22;373;49.342;8.146;2023-06-22T12:03:08;30.80;99.90
780;DHT22;373;49.342;8.146;2023-06-22T12:05:37;30.80;99.90
780;DHT22;373;49.342;8.146;2023-06-22T12:08:06;31.00;99.90
780;DHT22;373;49.342;8.146;2023-06-22T12:10:36;30.90;99.90
780;DHT22;373;49.342;8.146;2023-06-22T12:13:05;31.10;99.90
780;DHT22;373;49.342;8.146;2023-06-22T12:15:34;31.00;99.90
780;DHT22;373;49.342;8.146;2023-06-22T12:18:01;31.30;99.90
780;DHT22;373;49.342;8.146;2023-06-22T12:20:28;31.30;99.90
780;DHT22;373;49.342;8.146;2023-06-22T12:22:56;31.10;99.90
780;DHT22;373;49.342;8.146;2023-06-22T12:25:24;31.40;99.90
780;DHT22;373;49.342;8.146;2023-06-22T12:27:54;31.40;99.90
780;DHT22;373;49.342;8.146;2023-06-22T12:30:23;30.90;99.90
780;DHT22;373;49.342;8.146;2023-06-22T12:32:52;30.90;99.90
780;DHT22;373;49.342;8.146;2023-06-22T12:35:19;31.20;99.90
780;DHT22;373;49.342;8.146;2023-06-22T12:37:47;31.20;99.90
780;DHT22;373;49.342;8.146;2023-06-22T12:40:26;31.40;99.90
780;DHT22;373;49.342;8.146;2023-06-22T12:42:58;31.40;99.90
780;DHT22;373;49.342;8.146;2023-06-22T12:45:31;31.40;99.90
780;DHT22;373;49.342;8.146;2023-06-22T12:48:02;31.10;99.90
780;DHT22;373;49.342;8.146;2023-06-22T12:50:45;31.20;99.90
780;DHT22;373;49.342;8.146;2023-06-22T12:53:16;31.10;99.90
780;DHT22;373;49.342;8.146;2023-06-22T12:55:45;31.20;99.90
780;DHT22;373;49.342;8.146;2023-06-22T12:58:20;31.40;99.90
780;DHT22;373;49.342;8.146;2023-06-22T13:00:47;31.10;99.90
780;DHT22;373;49.342;8.146;2023-06-22T13:03:15;31.00;99.90
780;DHT22;373;49.342;8.146;2023-06-22T13:05:42;31.10;99.90
780;DHT22;373;49.342;8.146;2023-06-22T13:08:09;31.00;99.90
780;DHT22;373;49.342;8.146;2023-06-22T13:10:36;31.00;99.90
780;DHT22;373;49.342;8.146;2023-06-22T13:13:03;31.10;99.90
780;DHT22;373;49.342;8.146;2023-06-22T13:15:31;31.30;99.90
780;DHT22;373;49.342;8.146;2023-06-22T13:17:58;31.40;99.90
780;DHT22;373;49.342;8.146;2023-06-22T13:20:28;31.60;99.90
780;DHT22;373;49.342;8.146;2023-06-22T13:22:55;31.50;99.90
780;DHT22;373;49.342;8.146;2023-06-22T13:25:23;31.40;99.90
780;DHT22;373;49.342;8.146;2023-06-22T13:27:52;31.20;99.90
780;DHT22;373;49.342;8.146;2023-06-22T13:30:19;31.40;99.90
780;DHT22;373;49.342;8.146;2023-06-22T13:32:46;31.60;99.90
780;DHT22;373;49.342;8.146;2023-06-22T13:35:13;31.40;99.90
780;DHT22;373;49.342;8.146;2023-06-22T13:37:44;31.70;99.90
780;DHT22;373;49.342;8.146;2023-06-22T13:40:13;31.50;99.90
780;DHT22;373;49.342;8.146;2023-06-22T13:42:40;31.20;99.90
780;DHT22;373;49.342;8.146;2023-06-22T13:45:08;30.80;99.90
780;DHT22;373;49.342;8.146;2023-06-22T13:47:36;30.90;99.90
780;DHT22;373;49.342;8.146;2023-06-22T13:50:04;30.80;99.90
780;DHT22;373;49.342;8.146;2023-06-22T13:52:31;30.60;99.90
780;DHT22;373;49.342;8.146;2023-06-22T13:54:59;30.50;99.90
780;DHT22;373;49.342;8.146;2023-06-22T13:57:27;30.50;99.90
780;DHT22;373;49.342;8.146;2023-06-22T13:59:54;30.40;99.90
780;DHT22;373;49.342;8.146;2023-06-22T14:02:21;30.10;99.90
780;DHT22;373;49.342;8.146;2023-06-22T14:04:48;29.90;99.90
780;DHT22;373;49.342;8.146;2023-06-22T14:07:16;29.80;1.00
780;DHT22;373;49.342;8.146;2023-06-22T14:09:45;29.50;99.90
780;DHT22;373;49.342;8.146;2023-06-22T14:12:14;28.90;1.00
780;DHT22;373;49.342;8.146;2023-06-22T14:14:41;28.50;99.90
780;DHT22;373;49.342;8.146;2023-06-22T14:17:09;28.30;1.00
780;DHT22;373;49.342;8.146;2023-06-22T14:19:36;28.30;99.90
780;DHT22;373;49.342;8.146;2023-06-22T14:22:03;28.50;99.90
780;DHT22;373;49.342;8.146;2023-06-22T14:24:31;28.60;99.90
780;DHT22;373;49.342;8.146;2023-06-22T14:27:01;28.20;15.20
780;DHT22;373;49.342;8.146;2023-06-22T14:29:30;27.70;1.00
780;DHT22;373;49.342;8.146;2023-06-22T14:31:57;27.70;1.00
780;DHT22;373;49.342;8.146;2023-06-22T14:34:24;27.30;1.00
780;DHT22;373;49.342;8.146;2023-06-22T14:36:52;27.40;1.00
780;DHT22;373;49.342;8.146;2023-06-22T14:39:19;27.50;1.00
780;DHT22;373;49.342;8.146;2023-06-22T14:41:46;27.60;1.00
780;DHT22;373;49.342;8.146;2023-06-22T14:44:13;27.70;1.00
780;DHT22;373;49.342;8.146;2023-06-22T14:46:42;27.60;1.00
780;DHT22;373;49.342;8.146;2023-06-22T14:49:09;27.60;1.00
780;DHT22;373;49.342;8.146;2023-06-22T14:51:36;27.90;1.00
780;DHT22;373;49.342;8.146;2023-06-22T14:54:03;28.00;1.00
780;DHT22;373;49.342;8.146;2023-06-22T14:56:30;28.30;1.00
780;DHT22;373;49.342;8.146;2023-06-22T14:58:57;28.60;1.00
780;DHT22;373;49.342;8.146;2023-06-22T15:01:24;28.80;99.90
780;DHT22;373;49.342;8.146;2023-06-22T15:03:53;28.80;99.90
780;DHT22;373;49.342;8.146;2023-06-22T15:06:20;28.90;7.50
780;DHT22;373;49.342;8.146;2023-06-22T15:08:47;28.50;99.90
780;DHT22;373;49.342;8.146;2023-06-22T15:11:14;28.40;99.90
780;DHT22;373;49.342;8.146;2023-06-22T15:13:42;28.50;99.90
780;DHT22;373;49.342;8.146;2023-06-22T15:16:09;28.50;1.00
780;DHT22;373;49.342;8.146;2023-06-22T15:18:36;28.60;99.90
780;DHT22;373;49.342;8.146;2023-06-22T15:21:05;28.70;1.00
780;DHT22;373;49.342;8.146;2023-06-22T15:23:34;28.80;1.00
780;DHT22;373;49.342;8.146;2023-06-22T15:26:03;28.90;1.00
780;DHT22;373;49.342;8.146;2023-06-22T15:28:30;29.00;1.00
780;DHT22;373;49.342;8.146;2023-06-22T15:30:58;29.10;99.90
780;DHT22;373;49.342;8.146;2023-06-22T15:33:25;29.40;99.90
780;DHT22;373;49.342;8.146;2023-06-22T15:35:55;29.60;99.90
780;DHT22;373;49.342;8.146;2023-06-22T15:38:23;29.90;99.90
780;DHT22;373;49.342;8.146;2023-06-22T15:40:50;29.70;1.00
780;DHT22;373;49.342;8.146;2023-06-22T15:43:18;29.60;99.90
780;DHT22;373;49.342;8.146;2023-06-22T15:45:45;29.50;99.90
780;DHT22;373;49.342;8.146;2023-06-22T15:48:15;29.30;1.00
780;DHT22;373;49.342;8.146;2023-06-22T15:50:42;29.20;99.90
780;DHT22;373;49.342;8.146;2023-06-22T15:53:09;29.30;99.90
780;DHT22;373;49.342;8.146;2023-06-22T15:55:37;29.30;1.00
780;DHT22;373;49.342;8.146;2023-06-22T15:58:04;29.00;99.90
780;DHT22;373;49.342;8.146;2023-06-22T16:00:31;28.80;99.90
780;DHT22;373;49.342;8.146;2023-06-22T16:02:58;28.70;1.00
780;DHT22;373;49.342;8.146;2023-06-22T16:05:26;28.40;1.00
780;DHT22;373;49.342;8.146;2023-06-22T16:07:55;28.30;99.90
780;DHT22;373;49.342;8.146;2023-06-22T16:10:26;28.20;99.90
780;DHT22;373;49.342;8.146;2023-06-22T16:12:55;28.10;1.00
780;DHT22;373;49.342;8.146;2023-06-22T16:15:22;28.00;1.00
780;DHT22;373;49.342;8.146;2023-06-22T16:17:49;28.10;1.00
780;DHT22;373;49.342;8.146;2023-06-22T16:20:16;28.30;3.60
780;DHT22;373;49.342;8.146;2023-06-22T16:22:47;28.30;1.00
780;DHT22;373;49.342;8.146;2023-06-22T16:25:14;28.10;99.90
780;DHT22;373;49.342;8.146;2023-06-22T16:27:41;27.80;1.00
780;DHT22;373;49.342;8.146;2023-06-22T16:30:10;27.30;36.80
780;DHT22;373;49.342;8.146;2023-06-22T16:32:37;27.20;1.00
780;DHT22;373;49.342;8.146;2023-06-22T16:35:04;27.30;99.90
780;DHT22;373;49.342;8.146;2023-06-22T16:37:31;27.30;99.90
780;DHT22;373;49.342;8.146;2023-06-22T16:39:58;27.50;1.00
780;DHT22;373;49.342;8.146;2023-06-22T16:42:25;27.80;99.90
780;DHT22;373;49.342;8.146;2023-06-22T16:44:52;27.80;1.00
780;DHT22;373;49.342;8.146;2023-06-22T16:47:21;28.00;99.90
780;DHT22;373;49.342;8.146;2023-06-22T16:49:48;28.40;1.00
780;DHT22;373;49.342;8.146;2023-06-22T16:52:16;29.00;1.00